Time;durP1;ratioP1;P1;durP2;ratioP2;P2;SDS_P1;SDS_P2;PMS_P1;PMS_P2;Temp;Humidity;BMP_temperature;BMP_pressure;BME280_temperature;BME280_humidity;BME280_pressure;Samples;Min_cycle;Max_cycle;Signal;HPM_P1;HPM_P2
2023/01/14 00:02:24;;;;;;;0.43;0.40;;;;;;;;;;5021898;28;20787;-68
2023/01/14 00:04:49;;;;;;;1.13;0.50;;;;;;;;;;5021989;28;20084;-68
2023/01/14 00:07:16;;;;;;;3.78;0.52;;;;;;;;;;5022270;28;20045;-68
2023/01/14 00:09:42;;;;;;;0.77;0.45;;;;;;;;;;5020524;28;20057;-68
2023/01/14 00:12:07;;;;;;;0.85;0.60;;;;;;;;;;5021117;28;20049;-68
2023/01/14 00:14:33;;;;;;;1.58;1.17;;;;;;;;;;5021944;28;20495;-67
2023/01/14 00:17:00;;;;;;;1.10;0.70;;;;;;;;;;5021891;28;20148;-68
2023/01/14 00:19:26;;;;;;;0.70;0.70;;;;;;;;;;5021292;28;20053;-67
2023/01/14 00:21:52;;;;;;;5.13;0.98;;;;;;;;;;5020442;28;20053;-66
2023/01/14 00:24:19;;;;;;;1.08;0.80;;;;;;;;;;5022063;28;20068;-68
2023/01/14 00:26:47;;;;;;;3.05;0.60;;;;;;;;;;5021493;28;20053;-68
2023/01/14 00:29:20;;;;;;;0.68;0.55;;;;;;;;;;5036410;28;20049;-67
2023/01/14 00:31:45;;;;;;;0.60;0.60;;;;;;;;;;5035764;28;20063;-67
2023/01/14 00:34:12;;;;;;;1.65;0.40;;;;;;;;;;5021163;28;20053;-69
2023/01/14 00:36:38;;;;;;;2.42;0.50;;;;;;;;;;5021322;28;20049;-67
2023/01/14 00:39:03;;;;;;;3.28;0.60;;;;;;;;;;5021222;28;20049;-68
2023/01/14 00:41:29;;;;;;;0.38;0.38;;;;;;;;;;5036504;28;20057;-68
2023/01/14 00:43:59;;;;;;;1.20;0.52;;;;;;;;;;5020234;28;20138;-67
2023/01/14 00:46:30;;;;;;;0.30;0.30;;;;;;;;;;5021424;28;20046;-66
2023/01/14 00:48:58;;;;;;;1.60;0.60;;;;;;;;;;5019346;28;20081;-67
2023/01/14 00:51:29;;;;;;;;;;;;;;;;;;5021763;28;20045;-69
2023/01/14 00:53:57;;;;;;;0.40;0.40;;;;;;;;;;5009849;28;20027;-68
2023/01/14 00:56:23;;;;;;;0.30;0.30;;;;;;;;;;5020020;28;20057;-69
2023/01/14 00:58:49;;;;;;;0.93;0.40;;;;;;;;;;5020338;28;20056;-68
2023/01/14 01:01:16;;;;;;;1.30;0.55;;;;;;;;;;5021173;28;20091;-67
2023/01/14 01:03:44;;;;;;;1.02;0.70;;;;;;;;;;5019174;28;20524;-68
2023/01/14 01:06:11;;;;;;;1.17;0.50;;;;;;;;;;5016502;28;20502;-68
2023/01/14 01:08:36;;;;;;;1.65;0.70;;;;;;;;;;5018883;28;21076;-66
2023/01/14 01:11:02;;;;;;;0.85;0.60;;;;;;;;;;5017723;28;20049;-68
2023/01/14 01:13:28;;;;;;;0.90;0.45;;;;;;;;;;5016994;28;20049;-69
2023/01/14 01:15:59;;;;;;;1.13;0.63;;;;;;;;;;5021093;28;20033;-69
2023/01/14 01:18:26;;;;;;;0.32;0.22;;;;;;;;;;5020470;28;20538;-68
2023/01/14 01:21:05;;;;;;;2.17;0.70;;;;;;;;;;5035966;28;20045;-68
2023/01/14 01:23:30;;;;;;;6.43;0.70;;;;;;;;;;5031906;28;20450;-66
2023/01/14 01:26:04;;;;;;;0.40;0.40;;;;;;;;;;5019443;28;20148;-67
2023/01/14 01:28:31;;;;;;;2.35;0.70;;;;;;;;;;5023749;28;20048;-68
2023/01/14 01:31:10;;;;;;;0.57;0.32;;;;;;;;;;5020713;28;20136;-67
2023/01/14 01:33:35;;;;;;;1.65;0.63;;;;;;;;;;5019329;28;20128;-65
2023/01/14 01:36:06;;;;;;;1.83;0.60;;;;;;;;;;5034642;28;20107;-67
2023/01/14 01:38:32;;;;;;;0.38;0.38;;;;;;;;;;5019586;28;20514;-66
2023/01/14 01:40:58;;;;;;;1.75;0.68;;;;;;;;;;5035652;28;20060;-67
2023/01/14 01:43:27;;;;;;;0.50;0.50;;;;;;;;;;5019683;28;20037;-67
2023/01/14 01:45:53;;;;;;;0.85;0.43;;;;;;;;;;5034685;28;20045;-68
2023/01/14 01:48:28;;;;;;;0.50;0.50;;;;;;;;;;5024043;28;20072;-68
2023/01/14 01:51:04;;;;;;;0.30;0.30;;;;;;;;;;5035215;28;20076;-68
2023/01/14 01:53:33;;;;;;;1.25;0.80;;;;;;;;;;5019880;28;20141;-68
2023/01/14 01:55:59;;;;;;;1.25;0.60;;;;;;;;;;5019948;28;20053;-66
2023/01/14 01:58:26;;;;;;;2.88;0.40;;;;;;;;;;5033875;28;20053;-68
2023/01/14 02:00:52;;;;;;;1.33;0.43;;;;;;;;;;5020018;28;20045;-68
2023/01/14 02:03:40;;;;;;;4.03;0.70;;;;;;;;;;5035381;28;20103;-66
2023/01/14 02:06:06;;;;;;;1.20;0.60;;;;;;;;;;5035165;28;20422;-68
2023/01/14 02:08:35;;;;;;;0.50;0.30;;;;;;;;;;5034257;28;20049;-67
2023/01/14 02:11:32;;;;;;;5.82;1.20;;;;;;;;;;5020065;28;20045;-68
2023/01/14 02:14:22;;;;;;;1.65;0.70;;;;;;;;;;4971505;28;20494;-67
2023/01/14 02:16:54;;;;;;;1.33;0.60;;;;;;;;;;5035117;28;20049;-67
2023/01/14 02:19:29;;;;;;;;;;;;;;;;;;5034588;28;20047;-66
2023/01/14 02:22:06;;;;;;;2.33;0.90;;;;;;;;;;5017748;28;19960;-67
2023/01/14 02:24:50;;;;;;;0.35;0.35;;;;;;;;;;5035498;28;20505;-65
2023/01/14 02:27:33;;;;;;;2.30;0.90;;;;;;;;;;5019989;28;20132;-66
2023/01/14 02:30:32;;;;;;;2.40;0.90;;;;;;;;;;5034207;28;20056;-68
2023/01/14 02:33:20;;;;;;;1.10;0.80;;;;;;;;;;5035119;28;20053;-67
2023/01/14 02:35:52;;;;;;;2.92;0.55;;;;;;;;;;5024559;28;20473;-67
2023/01/14 02:38:43;;;;;;;2.85;0.68;;;;;;;;;;5018637;28;20063;-65
2023/01/14 02:44:06;;;;;;;12.52;0.70;;;;;;;;;;5034664;28;20129;-68
2023/01/14 02:44:15;;;;;;;2.42;0.55;;;;;;;;;;5011636;28;20144;-68
2023/01/14 02:46:53;;;;;;;1.58;0.52;;;;;;;;;;5018437;28;20046;-68
2023/01/14 02:49:26;;;;;;;0.98;0.68;;;;;;;;;;5034627;28;20057;-67
2023/01/14 02:51:56;;;;;;;0.50;0.50;;;;;;;;;;5017636;28;20049;-67
2023/01/14 02:54:22;;;;;;;1.67;0.98;;;;;;;;;;5010724;28;20053;-66
2023/01/14 02:56:48;;;;;;;5.40;0.70;;;;;;;;;;5018339;28;20534;-67
2023/01/14 02:59:17;;;;;;;3.20;1.13;;;;;;;;;;5017365;28;20124;-66
2023/01/14 03:01:57;;;;;;;3.03;0.75;;;;;;;;;;5007885;28;20046;-66
2023/01/14 03:04:35;;;;;;;1.60;0.63;;;;;;;;;;5045227;28;20077;-67
2023/01/14 03:07:04;;;;;;;0.50;0.50;;;;;;;;;;5027639;28;20053;-68
2023/01/14 03:09:49;;;;;;;2.17;0.70;;;;;;;;;;5029943;28;20131;-66
2023/01/14 03:12:15;;;;;;;2.47;0.57;;;;;;;;;;5022694;28;20049;-67
2023/01/14 03:14:53;;;;;;;0.98;0.45;;;;;;;;;;5022492;28;20050;-64
2023/01/14 03:18:04;;;;;;;1.60;0.60;;;;;;;;;;5021595;28;20045;-65
2023/01/14 03:20:36;;;;;;;1.33;1.23;;;;;;;;;;5014456;28;20084;-66
2023/01/14 03:23:12;;;;;;;8.07;0.95;;;;;;;;;;5023251;28;20108;-66
2023/01/14 03:25:43;;;;;;;2.30;0.70;;;;;;;;;;5020624;28;20053;-64
2023/01/14 03:28:23;;;;;;;3.88;1.00;;;;;;;;;;5021243;28;20045;-66
2023/01/14 03:30:54;;;;;;;3.97;1.20;;;;;;;;;;5020591;28;20041;-66
2023/01/14 03:33:27;;;;;;;1.13;0.60;;;;;;;;;;5022483;28;20045;-64
2023/01/14 03:35:55;;;;;;;3.05;0.75;;;;;;;;;;5020497;28;20120;-64
2023/01/14 03:38:35;;;;;;;1.45;0.60;;;;;;;;;;5036922;28;20151;-65
2023/01/14 03:41:04;;;;;;;1.52;0.70;;;;;;;;;;5022109;28;20124;-65
2023/01/14 03:43:37;;;;;;;3.38;1.25;;;;;;;;;;5022511;28;20060;-66
2023/01/14 03:46:02;;;;;;;4.30;0.90;;;;;;;;;;5021533;28;20191;-64
2023/01/14 03:48:28;;;;;;;0.75;0.52;;;;;;;;;;5021356;28;20155;-63
2023/01/14 03:51:23;;;;;;;1.50;0.82;;;;;;;;;;5022097;28;20060;-66
2023/01/14 03:54:04;;;;;;;4.50;0.80;;;;;;;;;;5021080;28;20486;-68
2023/01/14 03:56:54;;;;;;;2.05;0.90;;;;;;;;;;5022058;28;20049;-65
2023/01/14 03:59:30;;;;;;;3.63;1.40;;;;;;;;;;5009856;28;20414;-66
2023/01/14 04:01:56;;;;;;;3.42;0.82;;;;;;;;;;5021389;28;20061;-66
2023/01/14 04:04:23;;;;;;;3.80;0.80;;;;;;;;;;5034271;28;20050;-66
2023/01/14 04:06:49;;;;;;;5.47;1.63;;;;;;;;;;5022108;28;20049;-67
2023/01/14 04:09:14;;;;;;;2.70;0.65;;;;;;;;;;5020770;28;20049;-67
2023/01/14 04:11:40;;;;;;;2.60;0.77;;;;;;;;;;5022015;28;20099;-67
2023/01/14 04:16:50;;;;;;;1.55;0.40;;;;;;;;;;5027284;28;20060;-67
2023/01/14 04:19:15;;;;;;;5.18;0.90;;;;;;;;;;5021519;28;20061;-65
2023/01/14 04:21:41;;;;;;;3.47;1.50;;;;;;;;;;5021320;28;20136;-67
2023/01/14 04:24:07;;;;;;;6.47;1.05;;;;;;;;;;5021359;28;20962;-66
2023/01/14 04:26:32;;;;;;;1.88;0.70;;;;;;;;;;5022114;28;20057;-67
2023/01/14 04:28:58;;;;;;;2.53;0.80;;;;;;;;;;5020952;28;20164;-67
2023/01/14 04:31:23;;;;;;;6.43;1.48;;;;;;;;;;5020303;28;20479;-65
2023/01/14 04:33:50;;;;;;;1.60;0.68;;;;;;;;;;5021053;28;20078;-66
2023/01/14 04:36:15;;;;;;;2.95;0.77;;;;;;;;;;5021877;28;20053;-67
2023/01/14 04:38:41;;;;;;;4.18;1.00;;;;;;;;;;5019429;28;20049;-65
2023/01/14 04:42:25;;;;;;;1.17;0.55;;;;;;;;;;5021084;28;20076;-65
2023/01/14 04:43:52;;;;;;;2.13;0.77;;;;;;;;;;5019671;28;20103;-66
2023/01/14 04:46:17;;;;;;;1.73;0.75;;;;;;;;;;5020600;28;20053;-65
2023/01/14 04:48:43;;;;;;;4.03;1.20;;;;;;;;;;5021379;28;20049;-64
2023/01/14 04:51:08;;;;;;;5.25;1.15;;;;;;;;;;5021405;28;20041;-66
2023/01/14 04:53:33;;;;;;;7.30;1.25;;;;;;;;;;5020487;28;20029;-67
2023/01/14 04:55:59;;;;;;;6.00;1.15;;;;;;;;;;5020443;28;20977;-66
2023/01/14 04:58:24;;;;;;;2.83;0.82;;;;;;;;;;5021613;28;20122;-67
2023/01/14 05:00:51;;;;;;;2.83;0.80;;;;;;;;;;5020036;28;20053;-67
2023/01/14 05:03:16;;;;;;;2.38;0.60;;;;;;;;;;5021268;28;20094;-66
2023/01/14 05:05:42;;;;;;;4.03;0.77;;;;;;;;;;5035497;28;20053;-68
2023/01/14 05:08:09;;;;;;;4.95;1.25;;;;;;;;;;5020421;28;20049;-65
2023/01/14 05:10:35;;;;;;;1.60;0.60;;;;;;;;;;5019982;28;20849;-66
2023/01/14 05:13:02;;;;;;;6.03;0.88;;;;;;;;;;5020961;28;20147;-68
2023/01/14 05:15:36;;;;;;;4.70;0.80;;;;;;;;;;5017180;28;20053;-66
2023/01/14 05:18:03;;;;;;;6.45;0.70;;;;;;;;;;5020118;28;20041;-67
2023/01/14 05:20:29;;;;;;;9.35;0.90;;;;;;;;;;5019974;28;20077;-66
2023/01/14 05:23:01;;;;;;;1.13;0.52;;;;;;;;;;5020110;28;20091;-68
2023/01/14 05:25:27;;;;;;;3.00;0.77;;;;;;;;;;5020659;28;20461;-67
2023/01/14 05:27:53;;;;;;;1.70;0.73;;;;;;;;;;5018454;28;20048;-66
2023/01/14 05:30:19;;;;;;;3.72;1.02;;;;;;;;;;5017837;28;20045;-66
2023/01/14 05:32:45;;;;;;;6.05;0.80;;;;;;;;;;5020740;28;20115;-66
2023/01/14 05:35:10;;;;;;;0.75;0.60;;;;;;;;;;5020826;28;20629;-66
2023/01/14 05:37:36;;;;;;;3.47;0.70;;;;;;;;;;5019853;28;20053;-66
2023/01/14 05:40:02;;;;;;;3.38;0.88;;;;;;;;;;5017361;28;20034;-64
2023/01/14 05:47:56;;;;;;;6.28;1.00;;;;;;;;;;5019809;28;20132;-66
2023/01/14 05:50:21;;;;;;;1.90;0.68;;;;;;;;;;5018912;28;20163;-64
2023/01/14 05:52:47;;;;;;;4.88;1.08;;;;;;;;;;5020537;28;20049;-67
2023/01/14 05:55:12;;;;;;;4.45;0.80;;;;;;;;;;5020425;28;20140;-67
2023/01/14 05:57:38;;;;;;;4.53;1.23;;;;;;;;;;5020851;28;20490;-67
2023/01/14 06:00:04;;;;;;;2.13;0.90;;;;;;;;;;5018202;28;20136;-67
2023/01/14 06:08:05;;;;;;;0.70;0.70;;;;;;;;;;5019959;28;20060;-66
2023/01/14 06:10:30;;;;;;;10.90;1.35;;;;;;;;;;5018700;28;20042;-67
2023/01/14 06:12:58;;;;;;;5.65;1.10;;;;;;;;;;5019705;28;20759;-67
2023/01/14 06:15:33;;;;;;;2.55;0.93;;;;;;;;;;5019831;28;20045;-66
2023/01/14 06:18:09;;;;;;;4.38;1.08;;;;;;;;;;5017946;28;20573;-67
2023/01/14 06:20:38;;;;;;;6.13;1.50;;;;;;;;;;5034822;28;20049;-67
2023/01/14 06:23:04;;;;;;;4.00;1.10;;;;;;;;;;5018355;28;20055;-66
2023/01/14 06:25:31;;;;;;;3.42;1.02;;;;;;;;;;5020069;28;20072;-67
2023/01/14 06:27:57;;;;;;;4.82;1.45;;;;;;;;;;5035023;28;20454;-67
2023/01/14 06:30:23;;;;;;;5.57;1.30;;;;;;;;;;5019487;28;20049;-67
2023/01/14 06:32:48;;;;;;;6.13;1.40;;;;;;;;;;5018214;28;20649;-67
2023/01/14 06:35:14;;;;;;;3.50;1.30;;;;;;;;;;5019678;28;20128;-66
2023/01/14 06:37:45;;;;;;;8.50;1.45;;;;;;;;;;5020316;28;20063;-66
2023/01/14 06:40:11;;;;;;;11.53;2.43;;;;;;;;;;5021360;28;20494;-66
2023/01/14 06:42:37;;;;;;;11.68;1.40;;;;;;;;;;5019038;28;20049;-67
2023/01/14 06:45:03;;;;;;;5.45;1.38;;;;;;;;;;5021542;28;20045;-63
2023/01/14 06:47:28;;;;;;;8.10;1.38;;;;;;;;;;5023611;28;20045;-67
2023/01/14 06:49:54;;;;;;;2.22;0.93;;;;;;;;;;5021449;28;20049;-67
2023/01/14 06:52:19;;;;;;;4.50;1.25;;;;;;;;;;5023216;28;20049;-68
2023/01/14 06:54:47;;;;;;;4.97;1.20;;;;;;;;;;5022343;28;20049;-69
2023/01/14 06:57:12;;;;;;;4.13;1.27;;;;;;;;;;5023359;28;20099;-69
2023/01/14 06:59:38;;;;;;;2.78;1.45;;;;;;;;;;5022872;28;20045;-68
2023/01/14 07:02:03;;;;;;;3.47;1.45;;;;;;;;;;5022604;28;20076;-68
2023/01/14 07:04:28;;;;;;;3.30;1.50;;;;;;;;;;5023667;28;20051;-68
2023/01/14 07:06:54;;;;;;;4.97;1.60;;;;;;;;;;5038241;28;20041;-68
2023/01/14 07:09:20;;;;;;;5.82;2.05;;;;;;;;;;5022285;28;20444;-68
2023/01/14 07:11:45;;;;;;;9.02;2.10;;;;;;;;;;5021294;28;20278;-68
2023/01/14 07:14:10;;;;;;;6.10;1.95;;;;;;;;;;5013781;28;20067;-68
2023/01/14 07:16:36;;;;;;;4.55;2.10;;;;;;;;;;5021355;28;20407;-68
2023/01/14 07:19:01;;;;;;;4.45;1.95;;;;;;;;;;5034986;28;20090;-68
2023/01/14 07:21:27;;;;;;;6.72;2.25;;;;;;;;;;5020033;28;20795;-68
2023/01/14 07:23:52;;;;;;;6.68;1.98;;;;;;;;;;5021657;28;20171;-69
2023/01/14 07:26:18;;;;;;;3.28;1.80;;;;;;;;;;5022128;28;20045;-67
2023/01/14 07:28:43;;;;;;;8.27;2.22;;;;;;;;;;5021557;28;20060;-68
2023/01/14 07:31:09;;;;;;;7.57;2.25;;;;;;;;;;5021461;28;20045;-68
2023/01/14 07:33:35;;;;;;;12.60;2.63;;;;;;;;;;5021809;28;20248;-68
2023/01/14 07:36:00;;;;;;;9.38;2.67;;;;;;;;;;5021992;28;20057;-68
2023/01/14 07:38:26;;;;;;;7.25;2.70;;;;;;;;;;5027202;28;20059;-68
2023/01/14 07:40:53;;;;;;;5.90;2.58;;;;;;;;;;5020642;28;20048;-68
2023/01/14 07:43:19;;;;;;;7.53;2.30;;;;;;;;;;5022685;28;20049;-67
2023/01/14 07:45:44;;;;;;;8.43;3.25;;;;;;;;;;5022729;28;20591;-68
2023/01/14 07:48:10;;;;;;;11.23;3.20;;;;;;;;;;5022457;28;20061;-67
2023/01/14 07:50:36;;;;;;;9.55;3.50;;;;;;;;;;5021159;28;20049;-67
2023/01/14 07:53:01;;;;;;;12.20;4.18;;;;;;;;;;5022179;28;20071;-68
2023/01/14 07:55:27;;;;;;;11.50;3.88;;;;;;;;;;5016745;28;20049;-67
2023/01/14 07:57:53;;;;;;;8.25;2.92;;;;;;;;;;5017095;28;20128;-68
2023/01/14 08:00:19;;;;;;;8.90;3.05;;;;;;;;;;5016667;28;20064;-68
2023/01/14 08:02:46;;;;;;;7.68;2.72;;;;;;;;;;5012719;28;20045;-68
2023/01/14 08:05:11;;;;;;;8.35;2.65;;;;;;;;;;5017961;28;20140;-67
2023/01/14 08:07:37;;;;;;;6.45;2.78;;;;;;;;;;5018301;28;20045;-67
2023/01/14 08:10:03;;;;;;;8.43;2.67;;;;;;;;;;5017184;28;20123;-67
2023/01/14 08:12:31;;;;;;;5.60;2.60;;;;;;;;;;5015452;28;20046;-68
2023/01/14 08:14:58;;;;;;;11.55;2.70;;;;;;;;;;5015257;28;20041;-68
2023/01/14 08:17:23;;;;;;;6.72;2.50;;;;;;;;;;5019664;28;20550;-68
2023/01/14 08:19:48;;;;;;;5.25;2.40;;;;;;;;;;5020101;28;20044;-69
2023/01/14 08:22:14;;;;;;;4.85;2.30;;;;;;;;;;5019089;28;20061;-67
2023/01/14 08:24:39;;;;;;;6.22;2.10;;;;;;;;;;5019531;28;20523;-68
2023/01/14 08:27:05;;;;;;;7.30;2.30;;;;;;;;;;5019596;28;20065;-68
2023/01/14 08:29:30;;;;;;;4.72;1.92;;;;;;;;;;5019904;28;20046;-68
2023/01/14 08:31:55;;;;;;;4.93;2.30;;;;;;;;;;5022326;28;20054;-68
2023/01/14 08:34:22;;;;;;;3.70;2.10;;;;;;;;;;5026750;28;20502;-68
2023/01/14 08:36:48;;;;;;;7.80;2.88;;;;;;;;;;5019874;28;20045;-68
2023/01/14 08:39:14;;;;;;;4.68;2.42;;;;;;;;;;5020057;28;20128;-68
2023/01/14 08:41:39;;;;;;;6.10;3.05;;;;;;;;;;5018665;28;20045;-67
2023/01/14 08:44:05;;;;;;;8.05;2.22;;;;;;;;;;5019076;28;20088;-68
2023/01/14 08:46:30;;;;;;;6.25;2.25;;;;;;;;;;5017593;28;20046;-68
2023/01/14 08:48:56;;;;;;;5.00;2.10;;;;;;;;;;5017655;28;20147;-67
2023/01/14 08:51:26;;;;;;;6.88;2.10;;;;;;;;;;5020261;28;20206;-68
2023/01/14 08:53:53;;;;;;;5.57;2.00;;;;;;;;;;5020092;28;20520;-69
2023/01/14 08:56:19;;;;;;;4.25;2.25;;;;;;;;;;5018241;28;20057;-68
2023/01/14 08:58:45;;;;;;;7.25;2.47;;;;;;;;;;5018070;28;20098;-68
2023/01/14 09:01:10;;;;;;;4.88;2.15;;;;;;;;;;5018605;28;20095;-68
2023/01/14 09:03:37;;;;;;;5.25;2.08;;;;;;;;;;5033091;28;20061;-68
2023/01/14 09:06:07;;;;;;;5.53;1.75;;;;;;;;;;5013939;28;20160;-68
2023/01/14 09:17:13;;;;;;;2.95;1.85;;;;;;;;;;5015994;28;20828;-68
2023/01/14 09:19:52;;;;;;;3.90;2.08;;;;;;;;;;5016647;28;20132;-67
2023/01/14 09:22:23;;;;;;;3.35;2.20;;;;;;;;;;5018044;28;20045;-68
2023/01/14 09:24:49;;;;;;;3.60;2.00;;;;;;;;;;5019989;28;20053;-68
2023/01/14 09:27:15;;;;;;;2.80;2.00;;;;;;;;;;5017819;28;20033;-68
2023/01/14 09:29:41;;;;;;;3.97;2.30;;;;;;;;;;5018311;28;20041;-67
2023/01/14 09:32:12;;;;;;;2.50;1.85;;;;;;;;;;5014963;28;20045;-68
2023/01/14 09:34:50;;;;;;;2.75;2.20;;;;;;;;;;5015662;28;20486;-67
2023/01/14 09:37:24;;;;;;;4.30;2.35;;;;;;;;;;5014932;28;20071;-67
2023/01/14 09:39:50;;;;;;;3.05;2.13;;;;;;;;;;5016760;28;20041;-68
2023/01/14 09:42:24;;;;;;;3.67;2.20;;;;;;;;;;5014469;28;20110;-68
2023/01/14 09:44:52;;;;;;;3.13;2.28;;;;;;;;;;5019460;28;20112;-68
2023/01/14 09:47:22;;;;;;;3.13;2.50;;;;;;;;;;5018933;28;20049;-68
2023/01/14 09:49:51;;;;;;;2.90;1.70;;;;;;;;;;5031148;28;20151;-68
2023/01/14 09:53:12;;;;;;;2.42;2.22;;;;;;;;;;5016122;28;20053;-68
2023/01/14 09:55:44;;;;;;;2.10;1.90;;;;;;;;;;4969109;28;20142;-67
2023/01/14 09:58:17;;;;;;;;;;;;;;;;;;4968936;28;20061;-68
2023/01/14 10:00:46;;;;;;;;;;;;;;;;;;4996343;28;19968;-67
2023/01/14 10:03:24;;;;;;;2.65;2.33;;;;;;;;;;5026349;28;19921;-68
2023/01/14 10:06:00;;;;;;;3.47;1.33;;;;;;;;;;5019696;28;20056;-68
2023/01/14 10:08:30;;;;;;;2.50;1.90;;;;;;;;;;5041734;28;20041;-68
2023/01/14 10:10:56;;;;;;;4.45;1.67;;;;;;;;;;5018427;28;20072;-68
2023/01/14 10:13:34;;;;;;;2.75;1.92;;;;;;;;;;5019083;28;20041;-69
2023/01/14 10:16:07;;;;;;;1.85;1.75;;;;;;;;;;5023493;28;20258;-68
2023/01/14 10:18:39;;;;;;;1.90;1.80;;;;;;;;;;5022723;28;20064;-66
2023/01/14 10:21:58;;;;;;;2.42;1.80;;;;;;;;;;5022310;28;20053;-69
2023/01/14 10:24:23;;;;;;;4.32;2.47;;;;;;;;;;5034241;28;20092;-68
2023/01/14 10:26:51;;;;;;;2.97;1.83;;;;;;;;;;5024278;28;20132;-68
2023/01/14 10:29:22;;;;;;;1.77;1.45;;;;;;;;;;5023796;28;20437;-67
2023/01/14 10:31:59;;;;;;;2.35;2.08;;;;;;;;;;5024324;28;20054;-68
2023/01/14 10:34:29;;;;;;;2.70;1.60;;;;;;;;;;5036166;28;20045;-69
2023/01/14 10:36:54;;;;;;;2.63;1.48;;;;;;;;;;5022909;28;20041;-68
2023/01/14 10:39:20;;;;;;;1.88;1.55;;;;;;;;;;5022738;28;20052;-68
2023/01/14 10:41:51;;;;;;;1.88;1.45;;;;;;;;;;5022226;28;20048;-68
2023/01/14 10:44:34;;;;;;;1.45;1.30;;;;;;;;;;5022678;28;20045;-68
2023/01/14 10:47:03;;;;;;;1.90;1.70;;;;;;;;;;5022351;28;20053;-68
2023/01/14 10:49:42;;;;;;;3.30;1.70;;;;;;;;;;5022344;28;20050;-68
2023/01/14 10:52:19;;;;;;;1.52;1.40;;;;;;;;;;5021000;28;20068;-68
2023/01/14 10:55:13;;;;;;;4.38;1.70;;;;;;;;;;5021513;28;20055;-68
2023/01/14 10:57:53;;;;;;;1.77;1.45;;;;;;;;;;5017400;28;20042;-68
2023/01/14 11:00:27;;;;;;;2.53;1.65;;;;;;;;;;5022200;28;20050;-68
2023/01/14 11:02:54;;;;;;;1.60;1.50;;;;;;;;;;5038371;28;20087;-68
2023/01/14 11:05:30;;;;;;;3.90;1.80;;;;;;;;;;5023617;28;20046;-68
2023/01/14 11:07:59;;;;;;;2.20;1.60;;;;;;;;;;5021526;28;20890;-68
2023/01/14 11:10:28;;;;;;;2.03;1.60;;;;;;;;;;5022912;28;20049;-67
2023/01/14 11:13:13;;;;;;;3.03;1.67;;;;;;;;;;5023194;28;20136;-68
2023/01/14 11:15:41;;;;;;;16.55;1.60;;;;;;;;;;5023213;28;20044;-68
2023/01/14 11:18:23;;;;;;;3.83;1.50;;;;;;;;;;5022811;28;20584;-68
2023/01/14 11:21:12;;;;;;;2.38;1.20;;;;;;;;;;5021987;28;20142;-67
2023/01/14 11:23:43;;;;;;;1.13;1.05;;;;;;;;;;5023239;28;20057;-67
2023/01/14 11:26:24;;;;;;;2.00;1.50;;;;;;;;;;5021210;28;20048;-67
2023/01/14 11:28:52;;;;;;;1.52;1.25;;;;;;;;;;5022879;28;20098;-68
2023/01/14 11:31:32;;;;;;;4.13;1.63;;;;;;;;;;5021387;28;20080;-68
2023/01/14 11:33:58;;;;;;;2.13;1.58;;;;;;;;;;5021678;28;20126;-68
2023/01/14 11:36:27;;;;;;;1.52;1.23;;;;;;;;;;5022811;28;20581;-69
2023/01/14 11:38:56;;;;;;;2.33;1.45;;;;;;;;;;5022870;28;20136;-68
2023/01/14 11:41:30;;;;;;;1.20;1.10;;;;;;;;;;5020678;28;20049;-69
2023/01/14 11:44:13;;;;;;;1.40;1.20;;;;;;;;;;5019956;28;20057;-67
2023/01/14 11:46:42;;;;;;;1.60;1.50;;;;;;;;;;5021448;28;20068;-67
2023/01/14 11:49:19;;;;;;;3.00;1.70;;;;;;;;;;5029618;28;20514;-67
2023/01/14 11:52:00;;;;;;;3.42;1.42;;;;;;;;;;5018455;28;20087;-67
2023/01/14 11:54:45;;;;;;;5.53;1.60;;;;;;;;;;5047125;28;20064;-70
2023/01/14 11:57:15;;;;;;;3.13;2.05;;;;;;;;;;5016817;28;20049;-67
2023/01/14 11:59:42;;;;;;;5.10;1.27;;;;;;;;;;5018714;28;20050;-67
2023/01/14 12:02:14;;;;;;;2.55;1.23;;;;;;;;;;5012847;28;20049;-67
2023/01/14 12:04:51;;;;;;;2.25;1.35;;;;;;;;;;5017871;28;20051;-67
2023/01/14 12:07:26;;;;;;;1.40;1.30;;;;;;;;;;5017382;28;20861;-67
2023/01/14 12:09:56;;;;;;;1.42;1.10;;;;;;;;;;5022358;28;20048;-67
2023/01/14 12:18:31;;;;;;;1.95;1.75;;;;;;;;;;5050128;28;20095;-67
2023/01/14 12:20:57;;;;;;;2.45;1.30;;;;;;;;;;5019899;28;20548;-69
2023/01/14 12:23:27;;;;;;;4.07;1.70;;;;;;;;;;5016535;28;20453;-68
2023/01/14 12:25:53;;;;;;;4.93;2.10;;;;;;;;;;5019320;28;20490;-67
2023/01/14 12:28:39;;;;;;;3.15;1.73;;;;;;;;;;5018744;28;20136;-67
2023/01/14 12:31:15;;;;;;;3.88;2.10;;;;;;;;;;5018756;28;20041;-69
2023/01/14 12:33:49;;;;;;;3.67;1.85;;;;;;;;;;5017532;28;20135;-67
2023/01/14 12:36:25;;;;;;;2.92;1.73;;;;;;;;;;5016688;28;20045;-67
2023/01/14 12:47:44;;;;;;;1.35;1.25;;;;;;;;;;5018403;28;20139;-68
2023/01/14 12:50:13;;;;;;;4.65;1.48;;;;;;;;;;5016348;28;20099;-68
2023/01/14 12:52:46;;;;;;;1.80;1.15;;;;;;;;;;5017464;28;20049;-68
2023/01/14 12:55:39;;;;;;;1.38;0.98;;;;;;;;;;5018547;28;20041;-68
2023/01/14 12:58:14;;;;;;;1.52;1.20;;;;;;;;;;5015141;28;20053;-68
2023/01/14 13:00:40;;;;;;;1.55;1.15;;;;;;;;;;5018002;28;20083;-70
2023/01/14 13:03:16;;;;;;;2.28;1.10;;;;;;;;;;5019836;28;20049;-69
2023/01/14 13:05:44;;;;;;;1.67;1.10;;;;;;;;;;5020701;28;20045;-69
2023/01/14 13:08:31;;;;;;;0.70;0.70;;;;;;;;;;5019314;28;20046;-69
2023/01/14 13:11:02;;;;;;;1.50;1.20;;;;;;;;;;5003212;28;20041;-69
2023/01/14 13:13:30;;;;;;;1.58;1.02;;;;;;;;;;5020076;28;20580;-69
2023/01/14 13:15:58;;;;;;;1.40;1.20;;;;;;;;;;5034311;28;20049;-70
2023/01/14 13:18:35;;;;;;;1.42;1.30;;;;;;;;;;5019745;28;20135;-69
2023/01/14 13:21:06;;;;;;;1.17;0.93;;;;;;;;;;5017395;28;20885;-69
2023/01/14 13:23:44;;;;;;;1.10;1.00;;;;;;;;;;5020105;28;20045;-69
2023/01/14 13:26:18;;;;;;;1.42;1.17;;;;;;;;;;5019372;28;20046;-68
2023/01/14 13:29:14;;;;;;;2.03;1.13;;;;;;;;;;5018439;28;20065;-68
2023/01/14 13:31:40;;;;;;;2.15;1.48;;;;;;;;;;5017984;28;20049;-68
2023/01/14 13:34:35;;;;;;;1.60;1.20;;;;;;;;;;5019384;28;20072;-67
2023/01/14 13:37:00;;;;;;;3.97;0.95;;;;;;;;;;5015659;28;20060;-68
2023/01/14 13:39:27;;;;;;;1.58;0.82;;;;;;;;;;5035721;28;20057;-69
2023/01/14 13:42:01;;;;;;;1.70;1.00;;;;;;;;;;5017643;28;20048;-73
2023/01/14 13:44:29;;;;;;;1.65;1.15;;;;;;;;;;5019028;28;20053;-68
2023/01/14 13:47:16;;;;;;;2.28;1.33;;;;;;;;;;5017002;28;20053;-68
2023/01/14 13:49:51;;;;;;;5.78;1.48;;;;;;;;;;5018091;28;20041;-68
2023/01/14 13:52:21;;;;;;;1.80;1.30;;;;;;;;;;5017849;28;20132;-68
2023/01/14 13:54:55;;;;;;;4.03;1.10;;;;;;;;;;5018632;28;20399;-68
2023/01/14 13:57:31;;;;;;;1.92;1.08;;;;;;;;;;5017638;28;20498;-69
2023/01/14 14:00:00;;;;;;;1.15;1.05;;;;;;;;;;5016854;28;20045;-68
2023/01/14 14:02:42;;;;;;;2.25;1.27;;;;;;;;;;5017800;28;20107;-69
2023/01/14 14:05:14;;;;;;;;;;;;;;;;;;5016162;28;20136;-69
2023/01/14 14:07:45;;;;;;;1.73;1.02;;;;;;;;;;5014897;28;19929;-68
2023/01/14 14:10:14;;;;;;;1.38;0.93;;;;;;;;;;5016894;28;20407;-69
2023/01/14 14:15:31;;;;;;;0.70;0.70;;;;;;;;;;5015942;28;20120;-69
2023/01/14 14:17:58;;;;;;;1.77;0.90;;;;;;;;;;5031716;28;20072;-69
2023/01/14 14:20:33;;;;;;;0.77;0.75;;;;;;;;;;5017874;28;20045;-71
2023/01/14 14:23:03;;;;;;;1.67;0.80;;;;;;;;;;5019755;28;20119;-70
2023/01/14 14:25:42;;;;;;;1.63;0.93;;;;;;;;;;5017183;28;20053;-71
2023/01/14 14:28:14;;;;;;;1.52;1.42;;;;;;;;;;5018355;28;20061;-69
2023/01/14 14:30:44;;;;;;;1.88;1.38;;;;;;;;;;5019216;28;20090;-70
2023/01/14 14:33:40;;;;;;;1.50;1.30;;;;;;;;;;5034378;28;21017;-71
2023/01/14 14:36:17;;;;;;;3.03;0.70;;;;;;;;;;5018854;28;20490;-71
2023/01/14 14:38:48;;;;;;;1.25;0.70;;;;;;;;;;5017951;28;20636;-70
2023/01/14 14:41:24;;;;;;;3.63;2.20;;;;;;;;;;5017838;28;20457;-70
2023/01/14 14:43:59;;;;;;;3.13;2.83;;;;;;;;;;5019326;28;20037;-71
2023/01/14 14:46:25;;;;;;;2.13;1.30;;;;;;;;;;5049367;28;20077;-70
2023/01/14 14:48:51;;;;;;;3.60;1.75;;;;;;;;;;5019055;28;20391;-71
2023/01/14 14:51:28;;;;;;;1.10;0.98;;;;;;;;;;5018873;28;20073;-70
2023/01/14 14:53:56;;;;;;;1.88;0.90;;;;;;;;;;5018953;28;20045;-70
2023/01/14 14:56:24;;;;;;;0.88;0.80;;;;;;;;;;5019659;28;20053;-70
2023/01/14 14:58:55;;;;;;;1.00;0.90;;;;;;;;;;5017836;28;20069;-70
2023/01/14 15:01:30;;;;;;;3.45;0.82;;;;;;;;;;5020039;28;20073;-71
2023/01/14 15:03:56;;;;;;;3.00;0.70;;;;;;;;;;5021468;28;21293;-69
2023/01/14 15:06:23;;;;;;;0.80;0.80;;;;;;;;;;5021435;28;20072;-69
2023/01/14 15:09:02;;;;;;;0.80;0.70;;;;;;;;;;5022877;28;20054;-70
2023/01/14 15:11:32;;;;;;;2.08;1.35;;;;;;;;;;5020598;28;20045;-69
2023/01/14 15:13:58;;;;;;;1.42;0.68;;;;;;;;;;5021549;28;21118;-70
2023/01/14 15:16:25;;;;;;;1.25;0.90;;;;;;;;;;5021893;28;20501;-71
2023/01/14 15:18:56;;;;;;;1.13;0.90;;;;;;;;;;5021588;28;20132;-70
2023/01/14 15:21:27;;;;;;;1.63;0.93;;;;;;;;;;5020546;28;20041;-71
2023/01/14 15:23:58;;;;;;;1.05;0.95;;;;;;;;;;5020039;28;20481;-71
2023/01/14 15:26:29;;;;;;;0.88;0.88;;;;;;;;;;5021078;28;20049;-69
2023/01/14 15:28:56;;;;;;;1.10;1.00;;;;;;;;;;5021891;28;20195;-68
2023/01/14 15:31:24;;;;;;;1.85;1.10;;;;;;;;;;5019872;28;20045;-69
2023/01/14 15:34:06;;;;;;;2.78;1.60;;;;;;;;;;5016936;28;20046;-69
2023/01/14 15:36:34;;;;;;;5.95;1.35;;;;;;;;;;5041121;28;20129;-67
2023/01/14 15:39:00;;;;;;;6.15;1.60;;;;;;;;;;5019116;28;20565;-69
2023/01/14 15:41:34;;;;;;;2.35;1.30;;;;;;;;;;5019044;28;20470;-70
2023/01/14 15:44:00;;;;;;;1.83;1.15;;;;;;;;;;5018166;28;20045;-69
2023/01/14 15:46:26;;;;;;;3.00;0.93;;;;;;;;;;5019171;28;20798;-70